createdAt,value
2023-08-05T00:01:46.022Z,16.80
2023-08-05T00:04:12.867Z,16.80
2023-08-05T00:06:39.667Z,16.70
2023-08-05T00:09:06.423Z,16.70
2023-08-05T00:11:33.179Z,16.70
2023-08-05T00:14:00.067Z,16.70
2023-08-05T00:16:26.882Z,16.60
2023-08-05T00:18:53.671Z,16.50
2023-08-05T00:21:20.398Z,16.50
2023-08-05T00:23:47.435Z,16.50
2023-08-05T00:26:14.251Z,16.40
2023-08-05T00:28:41.078Z,16.30
2023-08-05T00:31:10.633Z,16.30
2023-08-05T00:33:37.420Z,16.30
2023-08-05T00:36:04.340Z,16.30
2023-08-05T00:38:31.100Z,16.40
2023-08-05T00:40:57.958Z,16.40
2023-08-05T00:43:24.751Z,16.30
2023-08-05T00:45:51.738Z,16.30
2023-08-05T00:48:18.499Z,16.30
2023-08-05T00:50:46.113Z,16.20
2023-08-05T00:53:13.413Z,16.20
2023-08-05T00:55:41.297Z,16.20
2023-08-05T00:58:08.331Z,16.20
2023-08-05T01:00:35.092Z,16.20
2023-08-05T01:03:01.891Z,16.20
2023-08-05T01:05:29.466Z,16.20
2023-08-05T01:07:57.138Z,16.20
2023-08-05T01:10:24.651Z,16.20
2023-08-05T01:12:51.457Z,16.10
2023-08-05T01:15:18.234Z,16.10
2023-08-05T01:17:49.061Z,16.10
2023-08-05T01:20:18.766Z,16.10
2023-08-05T01:22:49.556Z,16.00
2023-08-05T01:25:22.172Z,15.90
2023-08-05T01:27:49.112Z,15.80
2023-08-05T01:30:16.000Z,15.90
2023-08-05T01:32:43.683Z,15.90
2023-08-05T01:35:11.085Z,15.90
2023-08-05T01:37:37.973Z,15.90
2023-08-05T01:40:05.447Z,15.90
2023-08-05T01:42:32.187Z,15.90
2023-08-05T01:45:00.695Z,15.90
2023-08-05T01:47:27.495Z,15.90
2023-08-05T01:49:54.599Z,15.90
2023-08-05T01:52:21.400Z,15.90
2023-08-05T01:54:48.175Z,15.80
2023-08-05T01:57:14.948Z,15.70
2023-08-05T01:59:41.786Z,15.80
2023-08-05T02:02:08.641Z,15.70
2023-08-05T02:04:35.452Z,15.70
2023-08-05T02:07:02.277Z,15.70
2023-08-05T02:09:29.101Z,15.70
2023-08-05T02:11:55.863Z,15.70
2023-08-05T02:14:22.637Z,15.70
2023-08-05T02:16:49.895Z,15.70
2023-08-05T02:19:16.805Z,15.70
2023-08-05T02:21:43.575Z,15.60
2023-08-05T02:24:10.367Z,15.60
2023-08-05T02:26:37.987Z,15.60
2023-08-05T02:29:04.808Z,15.50
2023-08-05T02:31:31.662Z,15.50
2023-08-05T02:33:58.400Z,15.40
2023-08-05T02:36:25.218Z,15.40
2023-08-05T02:38:51.994Z,15.30
2023-08-05T02:41:19.000Z,15.30
2023-08-05T02:43:45.722Z,15.30
2023-08-05T02:46:12.652Z,15.20
2023-08-05T02:48:39.407Z,15.20
2023-08-05T02:51:06.160Z,15.20
2023-08-05T02:53:32.936Z,15.20
2023-08-05T02:55:59.686Z,15.10
2023-08-05T02:58:27.530Z,15.10
2023-08-05T03:00:54.460Z,15.10
2023-08-05T03:03:21.210Z,15.10
2023-08-05T03:05:48.047Z,15.10
2023-08-05T03:08:14.925Z,15.00
2023-08-05T03:10:41.704Z,15.00
2023-08-05T03:13:08.677Z,15.10
2023-08-05T03:15:35.525Z,15.00
2023-08-05T03:18:02.447Z,15.00
2023-08-05T03:20:31.418Z,15.00
2023-08-05T03:22:58.428Z,15.00
2023-08-05T03:25:27.393Z,15.00
2023-08-05T03:27:54.413Z,14.90
2023-08-05T03:30:21.544Z,14.80
2023-08-05T03:32:48.823Z,14.80
2023-08-05T03:35:16.238Z,14.80
2023-08-05T03:37:44.041Z,14.80
2023-08-05T03:40:11.070Z,14.80
2023-08-05T03:42:37.792Z,14.80
2023-08-05T03:45:05.536Z,14.90
2023-08-05T03:47:33.636Z,14.80
2023-08-05T03:50:01.013Z,14.80
2023-08-05T03:52:28.471Z,14.80
2023-08-05T03:54:55.444Z,14.80
2023-08-05T03:57:22.303Z,14.70
2023-08-05T03:59:49.211Z,14.70
2023-08-05T04:02:16.203Z,14.80
2023-08-05T04:04:43.035Z,14.80
2023-08-05T04:07:10.046Z,14.80
2023-08-05T04:09:37.577Z,14.80
2023-08-05T04:12:04.691Z,14.80
2023-08-05T04:14:31.484Z,14.70
2023-08-05T04:16:58.282Z,14.60
2023-08-05T04:19:25.026Z,14.40
2023-08-05T04:21:51.786Z,14.50
2023-08-05T04:24:18.499Z,14.50
2023-08-05T04:26:45.261Z,14.50
2023-08-05T04:29:12.067Z,14.60
2023-08-05T04:31:38.891Z,14.70
2023-08-05T04:34:05.627Z,14.70
2023-08-05T04:36:32.991Z,14.80
2023-08-05T04:38:59.714Z,14.80
2023-08-05T04:41:26.456Z,14.90
2023-08-05T04:43:53.209Z,14.90
2023-08-05T04:46:20.028Z,14.90
2023-08-05T04:48:46.719Z,14.90
2023-08-05T04:51:13.464Z,14.90
2023-08-05T04:53:40.184Z,14.90
2023-08-05T04:56:06.917Z,14.80
2023-08-05T04:58:33.707Z,14.80
2023-08-05T05:01:00.525Z,14.80
2023-08-05T05:03:27.434Z,14.90
2023-08-05T05:05:54.398Z,14.90
2023-08-05T05:08:21.684Z,15.00
2023-08-05T05:10:48.474Z,15.10
2023-08-05T05:13:15.496Z,15.10
2023-08-05T05:15:42.226Z,15.00
2023-08-05T05:18:08.990Z,14.90
2023-08-05T05:20:35.814Z,14.90
2023-08-05T05:23:02.558Z,14.80
2023-08-05T05:25:29.284Z,14.70
2023-08-05T05:27:56.059Z,14.50
2023-08-05T05:30:22.783Z,14.50
2023-08-05T05:32:49.648Z,14.40
2023-08-05T05:35:16.468Z,14.40
2023-08-05T05:37:43.188Z,14.50
2023-08-05T05:40:10.342Z,14.50
2023-08-05T05:42:37.078Z,14.50
2023-08-05T05:45:04.048Z,14.60
2023-08-05T05:47:30.903Z,14.60
2023-08-05T05:49:57.664Z,14.60
2023-08-05T05:52:24.385Z,14.70
2023-08-05T05:54:51.089Z,14.70
2023-08-05T05:57:17.824Z,14.70
2023-08-05T05:59:44.659Z,14.70
2023-08-05T06:02:11.384Z,14.80
2023-08-05T06:04:38.293Z,14.80
2023-08-05T06:07:05.315Z,14.90
2023-08-05T06:09:33.097Z,15.10
2023-08-05T06:12:01.820Z,15.10
2023-08-05T06:14:28.515Z,15.30
2023-08-05T06:16:55.585Z,15.50
2023-08-05T06:19:22.540Z,15.60
2023-08-05T06:21:49.450Z,15.80
2023-08-05T06:24:16.393Z,15.80
2023-08-05T06:26:43.221Z,15.90
2023-08-05T06:29:09.973Z,15.90
2023-08-05T06:31:36.810Z,15.90
2023-08-05T06:34:03.781Z,15.90
2023-08-05T06:36:30.635Z,15.90
2023-08-05T06:38:57.359Z,16.00
2023-08-05T06:41:24.599Z,16.10
2023-08-05T06:43:52.966Z,16.10
2023-08-05T06:46:19.769Z,16.20
2023-08-05T06:48:46.610Z,16.30
2023-08-05T06:51:13.453Z,16.30
2023-08-05T06:53:41.502Z,16.30
2023-08-05T06:56:08.535Z,16.50
2023-08-05T06:58:35.280Z,16.60
2023-08-05T07:01:02.034Z,16.70
2023-08-05T07:03:28.890Z,16.90
2023-08-05T07:05:56.467Z,16.90
2023-08-05T07:08:23.774Z,17.00
2023-08-05T07:10:57.811Z,17.20
2023-08-05T07:13:25.390Z,17.30
2023-08-05T07:15:58.661Z,17.40
2023-08-05T07:18:25.468Z,17.40
2023-08-05T07:20:52.733Z,17.40
2023-08-05T07:23:19.540Z,17.30
2023-08-05T07:25:46.325Z,17.30
2023-08-05T07:28:13.225Z,17.40
2023-08-05T07:30:39.979Z,17.60
2023-08-05T07:33:06.884Z,17.70
2023-08-05T07:35:33.866Z,17.80
2023-08-05T07:38:00.982Z,18.00
2023-08-05T07:40:27.819Z,17.90
2023-08-05T07:42:54.560Z,17.90
2023-08-05T07:45:21.327Z,18.00
2023-08-05T07:47:48.701Z,18.00
2023-08-05T07:50:15.482Z,17.90
2023-08-05T07:52:42.274Z,17.80
2023-08-05T07:55:09.304Z,17.80
2023-08-05T07:57:37.326Z,17.70
2023-08-05T08:00:04.698Z,17.60
2023-08-05T08:02:31.559Z,17.60
2023-08-05T08:04:58.451Z,17.50
2023-08-05T08:07:25.204Z,17.60
2023-08-05T08:09:51.956Z,17.70
2023-08-05T08:12:18.819Z,17.70
2023-08-05T08:14:46.839Z,17.70
2023-08-05T08:17:13.607Z,17.80
2023-08-05T08:19:40.460Z,18.00
2023-08-05T08:22:07.377Z,18.10
2023-08-05T08:24:34.102Z,18.10
2023-08-05T08:27:00.867Z,18.10
2023-08-05T08:29:27.696Z,17.90
2023-08-05T08:31:54.818Z,17.90
2023-08-05T08:34:21.683Z,17.90
2023-08-05T08:36:48.425Z,18.00
2023-08-05T08:39:15.165Z,18.10
2023-08-05T08:41:42.596Z,18.20
2023-08-05T08:44:13.214Z,18.20
2023-08-05T08:46:40.327Z,18.10
2023-08-05T08:49:08.588Z,18.20
2023-08-05T08:51:37.803Z,18.30
2023-08-05T08:54:07.313Z,18.40
2023-08-05T08:56:34.392Z,18.40
2023-08-05T08:59:01.110Z,18.40
2023-08-05T09:01:28.423Z,18.40
2023-08-05T09:03:56.638Z,18.20
2023-08-05T09:06:24.005Z,18.30
2023-08-05T09:08:50.798Z,18.30
2023-08-05T09:11:17.985Z,18.40
2023-08-05T09:13:45.108Z,18.50
2023-08-05T09:16:14.976Z,18.60
2023-08-05T09:18:45.820Z,18.60
2023-08-05T09:21:12.585Z,18.70
2023-08-05T09:23:46.035Z,19.00
2023-08-05T09:26:12.944Z,19.10
2023-08-05T09:28:40.242Z,19.30
2023-08-05T09:31:14.476Z,19.30
2023-08-05T09:33:42.413Z,19.30
2023-08-05T09:36:13.331Z,19.40
2023-08-05T09:38:40.718Z,19.50
2023-08-05T09:41:07.450Z,19.30
2023-08-05T09:43:37.687Z,19.30
2023-08-05T09:46:04.647Z,19.50
2023-08-05T09:48:41.190Z,19.50
2023-08-05T09:51:08.451Z,19.40
2023-08-05T09:53:39.124Z,19.20
2023-08-05T09:56:06.155Z,19.30
2023-08-05T09:58:34.044Z,19.40
2023-08-05T10:01:00.900Z,19.60
2023-08-05T10:03:28.255Z,19.60
2023-08-05T10:05:55.158Z,19.50
2023-08-05T10:08:22.581Z,19.60
2023-08-05T10:10:49.931Z,19.50
2023-08-05T10:13:19.347Z,19.70
2023-08-05T10:15:50.209Z,19.80
2023-08-05T10:18:18.737Z,20.00
2023-08-05T10:20:51.047Z,20.20
2023-08-05T10:23:17.895Z,20.40
2023-08-05T10:25:50.113Z,20.60
2023-08-05T10:28:26.002Z,20.90
2023-08-05T10:30:54.959Z,21.20
2023-08-05T10:33:22.071Z,21.40
2023-08-05T10:35:50.277Z,21.50
2023-08-05T10:38:18.865Z,21.60
2023-08-05T10:40:59.156Z,21.30
2023-08-05T10:43:32.373Z,21.20
2023-08-05T10:46:00.716Z,21.10
2023-08-05T10:48:49.127Z,21.20
2023-08-05T10:51:20.748Z,21.40
2023-08-05T10:53:56.691Z,21.50
2023-08-05T10:56:38.473Z,21.60
2023-08-05T10:59:06.254Z,21.20
2023-08-05T11:01:59.494Z,20.90
2023-08-05T11:04:33.256Z,20.80
2023-08-05T11:07:01.842Z,21.00
2023-08-05T11:09:35.988Z,21.20
2023-08-05T11:12:03.359Z,21.30
2023-08-05T11:14:30.613Z,21.40
2023-08-05T11:17:03.399Z,21.60
2023-08-05T11:19:50.047Z,21.70
2023-08-05T11:22:30.228Z,21.70
2023-08-05T11:24:58.402Z,21.70
2023-08-05T11:27:36.567Z,21.60
2023-08-05T11:30:21.981Z,21.60
2023-08-05T11:32:52.161Z,21.70
2023-08-05T11:35:19.425Z,21.70
2023-08-05T11:37:46.306Z,21.80
2023-08-05T11:40:13.284Z,21.70
2023-08-05T11:42:40.507Z,21.80
2023-08-05T11:45:14.735Z,22.00
2023-08-05T11:47:42.350Z,22.10
2023-08-05T11:50:11.417Z,22.30
2023-08-05T11:52:38.706Z,22.50
2023-08-05T11:55:07.031Z,22.60
2023-08-05T11:57:33.884Z,22.60
2023-08-05T12:00:09.949Z,22.80
2023-08-05T12:02:37.455Z,22.80
2023-08-05T12:05:07.491Z,22.70
2023-08-05T12:07:41.723Z,22.70
2023-08-05T12:10:09.010Z,22.70
2023-08-05T12:12:36.979Z,22.90
2023-08-05T12:15:10.930Z,22.90
2023-08-05T12:17:38.603Z,23.10
2023-08-05T12:20:11.255Z,23.10
2023-08-05T12:22:39.430Z,23.20
2023-08-05T12:25:06.700Z,23.20
2023-08-05T12:27:33.441Z,23.30
2023-08-05T12:30:00.712Z,23.30
2023-08-05T12:32:27.552Z,23.40
2023-08-05T12:34:54.344Z,23.40
2023-08-05T12:37:21.048Z,23.50
2023-08-05T12:39:47.804Z,23.50
2023-08-05T12:42:14.565Z,23.50
2023-08-05T12:44:41.360Z,23.50
2023-08-05T12:47:08.063Z,23.30
2023-08-05T12:49:34.809Z,23.20
2023-08-05T12:52:03.014Z,23.20
2023-08-05T12:54:31.771Z,23.20
2023-08-05T12:56:58.597Z,23.10
2023-08-05T12:59:25.525Z,23.20
2023-08-05T13:01:52.286Z,23.10
2023-08-05T13:04:19.036Z,23.10
2023-08-05T13:06:45.852Z,23.10
2023-08-05T13:09:12.598Z,22.90
2023-08-05T13:11:39.350Z,22.80
2023-08-05T13:14:06.128Z,22.80
2023-08-05T13:16:32.948Z,22.80
2023-08-05T13:18:59.688Z,22.90
2023-08-05T13:21:26.468Z,22.90
2023-08-05T13:23:53.347Z,22.90
2023-08-05T13:26:20.185Z,22.90
2023-08-05T13:28:47.414Z,22.90
2023-08-05T13:31:14.182Z,22.90
2023-08-05T13:33:40.936Z,22.90
2023-08-05T13:36:07.883Z,22.90
2023-08-05T13:38:34.596Z,22.90
2023-08-05T13:41:01.484Z,23.00
2023-08-05T13:43:28.360Z,23.00
2023-08-05T13:45:56.919Z,23.00
2023-08-05T13:48:25.672Z,23.00
2023-08-05T13:51:03.005Z,23.00
2023-08-05T13:53:30.145Z,23.00
2023-08-05T13:55:58.480Z,22.90
2023-08-05T13:58:25.897Z,22.80
2023-08-05T14:00:54.703Z,22.60
2023-08-05T14:03:24.513Z,22.50
2023-08-05T14:05:59.255Z,22.60
2023-08-05T14:08:26.625Z,22.60
2023-08-05T14:10:54.238Z,22.60
2023-08-05T14:13:21.672Z,22.60
2023-08-05T14:15:51.833Z,22.60
2023-08-05T14:18:19.358Z,22.60
2023-08-05T14:20:46.132Z,22.50
2023-08-05T14:23:12.960Z,22.50
2023-08-05T14:25:40.222Z,22.60
2023-08-05T14:28:06.995Z,22.60
2023-08-05T14:30:33.729Z,22.60
2023-08-05T14:33:00.595Z,22.40
2023-08-05T14:35:32.219Z,22.30
2023-08-05T14:37:58.992Z,22.30
2023-08-05T14:40:25.765Z,22.30
2023-08-05T14:42:52.516Z,22.30
2023-08-05T14:45:19.257Z,22.30
2023-08-05T14:47:45.993Z,22.40
2023-08-05T14:50:12.857Z,22.40
2023-08-05T14:52:39.591Z,22.40
2023-08-05T14:55:06.581Z,22.30
2023-08-05T14:57:33.425Z,22.40
2023-08-05T15:00:00.192Z,22.30
2023-08-05T15:02:27.113Z,22.20
2023-08-05T15:04:54.438Z,22.20
2023-08-05T15:07:21.188Z,22.10
2023-08-05T15:09:47.951Z,22.20
2023-08-05T15:12:14.702Z,22.20
2023-08-05T15:14:41.438Z,22.20
2023-08-05T15:17:08.219Z,22.10
2023-08-05T15:19:35.035Z,22.10
2023-08-05T15:22:01.817Z,22.00
2023-08-05T15:24:28.786Z,22.00
2023-08-05T15:26:55.558Z,22.00
2023-08-05T15:29:22.278Z,22.10
2023-08-05T15:31:50.323Z,22.20
2023-08-05T15:34:17.354Z,22.10
2023-08-05T15:36:45.636Z,22.20
2023-08-05T15:39:12.414Z,22.20
2023-08-05T15:41:39.283Z,22.30
2023-08-05T15:44:06.064Z,22.20
2023-08-05T15:46:32.844Z,22.20
2023-08-05T15:48:59.619Z,22.20
2023-08-05T15:51:26.412Z,22.10
2023-08-05T15:53:53.698Z,22.10
2023-08-05T15:56:20.473Z,22.20
2023-08-05T15:58:47.486Z,22.10
2023-08-05T16:01:14.263Z,22.00
2023-08-05T16:03:41.062Z,21.80
2023-08-05T16:06:12.314Z,21.80
2023-08-05T16:08:39.717Z,21.70
2023-08-05T16:11:08.960Z,21.70
2023-08-05T16:13:36.108Z,21.70
2023-08-05T16:16:10.598Z,21.70
2023-08-05T16:18:38.315Z,21.70
2023-08-05T16:21:12.863Z,21.60
2023-08-05T16:23:40.072Z,21.60
2023-08-05T16:26:11.297Z,21.50
2023-08-05T16:28:38.253Z,21.50
2023-08-05T16:31:06.156Z,21.50
2023-08-05T16:33:33.466Z,21.40
2023-08-05T16:36:00.280Z,21.30
2023-08-05T16:38:27.337Z,21.20
2023-08-05T16:40:54.380Z,21.10
2023-08-05T16:43:21.193Z,20.90
2023-08-05T16:45:47.945Z,20.80
2023-08-05T16:48:14.725Z,20.80
2023-08-05T16:50:42.235Z,20.70
2023-08-05T16:53:10.063Z,20.70
2023-08-05T16:55:37.493Z,20.60
2023-08-05T16:58:04.405Z,20.50
2023-08-05T17:00:31.361Z,20.50
2023-08-05T17:02:58.404Z,20.50
2023-08-05T17:05:25.456Z,20.30
2023-08-05T17:07:52.188Z,20.20
2023-08-05T17:10:19.604Z,20.20
2023-08-05T17:12:46.431Z,20.10
2023-08-05T17:15:13.273Z,20.10
2023-08-05T17:17:40.065Z,20.10
2023-08-05T17:20:07.786Z,20.20
2023-08-05T17:22:34.993Z,20.10
2023-08-05T17:25:02.249Z,20.00
2023-08-05T17:27:29.012Z,20.00
2023-08-05T17:29:55.845Z,20.00
2023-08-05T17:32:22.639Z,20.00
2023-08-05T17:34:49.386Z,20.10
2023-08-05T17:37:16.114Z,20.20
2023-08-05T17:39:42.878Z,20.20
2023-08-05T17:42:09.779Z,20.20
2023-08-05T17:44:36.620Z,20.20
2023-08-05T17:47:06.466Z,20.20
2023-08-05T17:49:33.289Z,20.30
2023-08-05T17:52:00.062Z,20.20
2023-08-05T17:54:26.770Z,20.30
2023-08-05T17:56:53.560Z,20.20
2023-08-05T17:59:20.476Z,20.20
2023-08-05T18:01:48.107Z,20.20
2023-08-05T18:04:18.310Z,20.20
2023-08-05T18:06:45.608Z,20.20
2023-08-05T18:09:12.558Z,20.10
2023-08-05T18:11:39.560Z,20.10
2023-08-05T18:14:06.508Z,20.10
2023-08-05T18:16:33.363Z,20.10
2023-08-05T18:19:00.270Z,20.00
2023-08-05T18:21:27.234Z,20.00
2023-08-05T18:23:54.410Z,20.00
2023-08-05T18:26:21.140Z,19.90
2023-08-05T18:28:50.187Z,19.90
2023-08-05T18:31:17.561Z,19.90
2023-08-05T18:33:44.502Z,19.90
2023-08-05T18:36:11.351Z,19.90
2023-08-05T18:38:38.236Z,19.80
2023-08-05T18:41:06.274Z,19.80
2023-08-05T18:43:33.400Z,19.80
2023-08-05T18:46:00.493Z,19.80
2023-08-05T18:48:27.349Z,19.70
2023-08-05T18:50:54.375Z,19.70
2023-08-05T18:53:21.270Z,19.80
2023-08-05T18:55:48.915Z,19.70
2023-08-05T18:58:15.899Z,19.70
2023-08-05T19:00:43.309Z,19.70
2023-08-05T19:03:10.207Z,19.70
2023-08-05T19:05:37.055Z,19.70
2023-08-05T19:08:04.345Z,19.60
2023-08-05T19:10:31.202Z,19.60
2023-08-05T19:12:57.956Z,19.60
2023-08-05T19:15:24.730Z,19.50
2023-08-05T19:17:51.592Z,19.50
2023-08-05T19:20:18.466Z,19.40
2023-08-05T19:22:45.611Z,19.40
2023-08-05T19:25:12.488Z,19.40
2023-08-05T19:27:53.511Z,19.40
2023-08-05T19:30:21.515Z,19.30
2023-08-05T19:32:48.251Z,19.30
2023-08-05T19:35:15.298Z,19.30
2023-08-05T19:37:42.136Z,19.30
2023-08-05T19:40:09.456Z,19.30
2023-08-05T19:42:36.337Z,19.30
2023-08-05T19:45:03.273Z,19.30
2023-08-05T19:47:30.069Z,19.20
2023-08-05T19:49:56.808Z,19.20
2023-08-05T19:52:23.713Z,19.20
2023-08-05T19:54:50.435Z,19.10
2023-08-05T19:57:17.332Z,19.10
2023-08-05T19:59:44.080Z,19.10
2023-08-05T20:02:11.164Z,19.10
2023-08-05T20:04:37.960Z,19.10
2023-08-05T20:07:05.034Z,19.10
2023-08-05T20:09:31.807Z,19.10
2023-08-05T20:11:58.715Z,19.10
2023-08-05T20:14:25.695Z,19.00
2023-08-05T20:16:52.460Z,19.00
2023-08-05T20:19:19.322Z,19.00
2023-08-05T20:21:46.130Z,19.00
2023-08-05T20:24:12.925Z,19.00
2023-08-05T20:26:39.662Z,18.90
2023-08-05T20:29:07.041Z,19.00
2023-08-05T20:31:33.742Z,18.90
2023-08-05T20:34:00.555Z,18.90
2023-08-05T20:36:27.777Z,18.90
2023-08-05T20:38:54.911Z,18.90
2023-08-05T20:41:21.707Z,18.90
2023-08-05T20:43:48.496Z,18.90
2023-08-05T20:46:15.296Z,18.80
2023-08-05T20:48:42.114Z,18.80
2023-08-05T20:51:08.860Z,18.80
2023-08-05T20:53:35.654Z,18.80
2023-08-05T20:56:02.497Z,18.70
2023-08-05T20:58:29.316Z,18.70
2023-08-05T21:00:59.280Z,18.70
2023-08-05T21:03:26.427Z,18.70
2023-08-05T21:06:00.528Z,18.60
2023-08-05T21:08:27.671Z,18.60
2023-08-05T21:11:05.228Z,18.60
2023-08-05T21:13:32.038Z,18.60
2023-08-05T21:15:58.792Z,18.50
2023-08-05T21:18:25.596Z,18.50
2023-08-05T21:20:52.643Z,18.40
2023-08-05T21:23:19.442Z,18.40
2023-08-05T21:25:46.203Z,18.40
2023-08-05T21:28:12.977Z,18.40
2023-08-05T21:30:39.736Z,18.40
2023-08-05T21:33:06.605Z,18.40
2023-08-05T21:35:33.374Z,18.40
2023-08-05T21:38:00.144Z,18.40
2023-08-05T21:40:26.921Z,18.40
2023-08-05T21:42:53.786Z,18.30
2023-08-05T21:45:22.097Z,18.30
2023-08-05T21:47:50.941Z,18.30
2023-08-05T21:50:17.832Z,18.30
2023-08-05T21:52:44.558Z,18.30
2023-08-05T21:55:11.295Z,18.30
2023-08-05T21:57:38.025Z,18.20
2023-08-05T22:00:06.845Z,18.20
2023-08-05T22:02:33.721Z,18.20
2023-08-05T22:05:00.618Z,18.10
2023-08-05T22:07:27.457Z,18.10
2023-08-05T22:09:54.365Z,18.10
2023-08-05T22:12:21.122Z,18.10
2023-08-05T22:14:47.930Z,18.10
2023-08-05T22:17:14.710Z,18.10
2023-08-05T22:19:41.420Z,18.00
2023-08-05T22:22:08.206Z,18.00
2023-08-05T22:24:41.266Z,18.00
2023-08-05T22:27:09.858Z,18.00
2023-08-05T22:29:36.710Z,17.90
2023-08-05T22:32:04.173Z,17.90
2023-08-05T22:34:31.348Z,17.90
2023-08-05T22:36:58.168Z,17.90
2023-08-05T22:39:24.913Z,17.90
2023-08-05T22:41:51.962Z,17.90
2023-08-05T22:44:18.987Z,17.90
2023-08-05T22:46:45.805Z,17.90
2023-08-05T22:49:12.674Z,17.80
2023-08-05T22:51:39.450Z,17.80
2023-08-05T22:54:06.192Z,17.80
2023-08-05T22:56:33.160Z,17.80
2023-08-05T22:59:00.339Z,17.80
2023-08-05T23:01:27.232Z,17.80
2023-08-05T23:03:54.322Z,17.80
2023-08-05T23:06:21.092Z,17.80
2023-08-05T23:08:48.947Z,17.80
2023-08-05T23:11:15.825Z,17.80
2023-08-05T23:13:42.605Z,17.80
2023-08-05T23:16:13.403Z,17.80
2023-08-05T23:18:41.014Z,17.80
2023-08-05T23:21:08.792Z,17.80
2023-08-05T23:23:35.598Z,17.80
2023-08-05T23:26:03.438Z,17.80
2023-08-05T23:28:31.197Z,17.80
2023-08-05T23:30:58.196Z,17.80
2023-08-05T23:33:25.091Z,17.70
2023-08-05T23:35:55.177Z,17.80
2023-08-05T23:38:22.479Z,17.70
2023-08-05T23:40:50.770Z,17.70
2023-08-05T23:43:18.217Z,17.70
2023-08-05T23:45:49.813Z,17.70
2023-08-05T23:48:17.397Z,17.70
2023-08-05T23:50:44.835Z,17.70
2023-08-05T23:53:11.638Z,17.70
2023-08-05T23:55:38.440Z,17.70
2023-08-05T23:58:05.204Z,17.70
